Time;durP1;ratioP1;P1;durP2;ratioP2;P2;SDS_P1;SDS_P2;PMS_P1;PMS_P2;Temp;Humidity;BMP_temperature;BMP_pressure;BME280_temperature;BME280_humidity;BME280_pressure;Samples;Min_cycle;Max_cycle;Signal;HPM_P1;HPM_P2
2020/12/22 00:01:01;;;;;;;4.10;3.67;;;8.20;99.90;;;;;;4935540;29;20258;-45
2020/12/22 00:03:27;;;;;;;3.70;3.40;;;8.20;99.90;;;;;;4935501;29;20625;-45
2020/12/22 00:05:54;;;;;;;5.87;3.30;;;8.30;99.90;;;;;;4935580;29;20212;-48
2020/12/22 00:08:22;;;;;;;3.90;3.50;;;8.30;99.90;;;;;;4935599;29;20255;-47
2020/12/22 00:10:49;;;;;;;4.23;2.97;;;8.40;99.90;;;;;;4935256;29;20263;-47
2020/12/22 00:13:17;;;;;;;3.03;2.73;;;8.40;99.90;;;;;;4935068;29;20726;-46
2020/12/22 00:15:44;;;;;;;2.80;2.53;;;8.40;99.90;;;;;;4935011;29;20239;-45
2020/12/22 00:18:12;;;;;;;3.13;2.87;;;8.40;99.90;;;;;;4935001;29;20638;-49
2020/12/22 00:20:39;;;;;;;4.50;3.00;;;8.50;99.90;;;;;;4935154;29;20739;-46
2020/12/22 00:23:06;;;;;;;3.27;2.97;;;8.50;99.90;;;;;;4934738;29;20709;-48
2020/12/22 00:25:41;;;;;;;5.10;3.20;;;8.50;99.90;;;;;;4934904;29;20212;-49
2020/12/22 00:28:08;;;;;;;2.80;2.60;;;8.50;99.90;;;;;;4935158;29;20298;-45
2020/12/22 00:30:36;;;;;;;3.23;2.80;;;8.50;99.90;;;;;;4934788;29;20714;-44
2020/12/22 00:33:03;;;;;;;5.72;3.70;;;8.50;99.90;;;;;;4935121;29;20238;-46
2020/12/22 00:35:30;;;;;;;3.20;2.90;;;8.50;99.90;;;;;;4934940;29;20746;-44
2020/12/22 00:37:57;;;;;;;4.75;3.92;;;8.50;99.90;;;;;;4934765;29;20303;-45
2020/12/22 00:40:25;;;;;;;4.30;3.92;;;8.50;99.90;;;;;;4934847;29;20295;-44
2020/12/22 00:42:53;;;;;;;4.37;3.83;;;8.50;99.90;;;;;;4934911;29;20212;-45
2020/12/22 00:45:21;;;;;;;3.17;2.87;;;8.50;99.90;;;;;;4934663;29;20633;-44
2020/12/22 00:47:48;;;;;;;4.60;3.03;;;8.50;99.90;;;;;;4934732;29;20208;-48
2020/12/22 00:50:15;;;;;;;4.77;4.20;;;8.60;99.90;;;;;;4934886;29;20235;-47
2020/12/22 00:52:42;;;;;;;3.72;3.20;;;8.60;99.90;;;;;;4934539;29;20215;-47
2020/12/22 00:55:09;;;;;;;5.23;3.83;;;8.60;99.90;;;;;;4934703;29;20319;-50
2020/12/22 00:57:36;;;;;;;2.53;2.33;;;8.70;99.90;;;;;;4934448;29;20674;-48
2020/12/22 01:00:05;;;;;;;2.80;2.60;;;8.60;99.90;;;;;;4934538;29;20667;-47
2020/12/22 01:02:32;;;;;;;9.77;6.30;;;8.60;99.90;;;;;;4934741;29;20241;-44
2020/12/22 01:04:59;;;;;;;3.05;2.70;;;8.70;99.90;;;;;;4934712;29;20300;-46
2020/12/22 01:07:26;;;;;;;2.87;2.67;;;8.60;99.90;;;;;;4934661;29;20307;-50
2020/12/22 01:09:53;;;;;;;2.57;2.37;;;8.60;99.90;;;;;;4934444;29;20208;-49
2020/12/22 01:12:20;;;;;;;2.53;2.17;;;8.60;99.90;;;;;;4934213;29;20234;-49
2020/12/22 01:14:48;;;;;;;3.10;2.90;;;8.60;99.90;;;;;;4934264;29;20625;-49
2020/12/22 01:17:16;;;;;;;2.47;2.25;;;8.60;99.90;;;;;;4934737;29;20212;-47
2020/12/22 01:19:43;;;;;;;3.03;2.70;;;8.60;99.90;;;;;;4934698;29;20216;-50
2020/12/22 01:22:11;;;;;;;4.17;2.97;;;8.60;99.90;;;;;;4934538;29;20247;-53
2020/12/22 01:24:39;;;;;;;2.37;2.17;;;8.60;99.90;;;;;;4934541;29;20208;-52
2020/12/22 01:27:06;;;;;;;2.88;2.67;;;8.70;99.90;;;;;;4934444;29;20284;-51
2020/12/22 01:29:33;;;;;;;2.20;2.10;;;8.70;99.90;;;;;;4937423;29;20286;-50
2020/12/22 01:32:00;;;;;;;3.30;2.53;;;8.70;99.90;;;;;;4938258;29;20397;-52
2020/12/22 01:34:28;;;;;;;2.40;2.20;;;8.70;99.90;;;;;;4938107;29;20212;-55
2020/12/22 01:36:55;;;;;;;2.50;2.25;;;8.80;99.90;;;;;;4937964;29;20298;-55
2020/12/22 01:39:22;;;;;;;2.25;2.05;;;8.80;99.90;;;;;;4938055;29;20216;-54
2020/12/22 01:41:49;;;;;;;10.77;7.60;;;8.80;99.90;;;;;;4938188;29;20228;-54
2020/12/22 01:44:17;;;;;;;2.33;2.17;;;8.90;99.90;;;;;;4938063;29;20211;-52
2020/12/22 01:46:45;;;;;;;2.17;1.98;;;9.00;99.90;;;;;;4938057;29;20637;-52
2020/12/22 01:49:16;;;;;;;2.27;2.10;;;9.00;99.90;;;;;;4937950;29;20220;-48
2020/12/22 01:51:46;;;;;;;4.50;4.07;;;9.00;99.90;;;;;;4937628;29;20347;-48
2020/12/22 01:54:13;;;;;;;3.00;2.80;;;9.00;99.90;;;;;;4938034;29;20683;-46
2020/12/22 01:56:41;;;;;;;3.78;2.75;;;9.10;99.90;;;;;;4937731;29;20632;-47
2020/12/22 01:59:08;;;;;;;3.50;3.20;;;9.10;99.90;;;;;;4937579;29;20675;-45
2020/12/22 02:01:35;;;;;;;3.63;3.33;;;9.20;99.90;;;;;;4937715;29;20291;-46
2020/12/22 02:04:04;;;;;;;3.58;3.22;;;9.20;99.90;;;;;;4937496;29;20752;-49
2020/12/22 02:06:33;;;;;;;3.90;3.58;;;9.20;99.90;;;;;;4937571;29;20650;-49
2020/12/22 02:09:01;;;;;;;4.07;3.78;;;9.20;99.90;;;;;;4937730;29;20247;-46
2020/12/22 02:11:29;;;;;;;3.40;3.10;;;9.20;99.90;;;;;;4937587;29;20231;-49
2020/12/22 02:13:59;;;;;;;3.47;3.17;;;9.20;99.90;;;;;;4937310;29;20741;-48
2020/12/22 02:16:26;;;;;;;3.72;3.50;;;9.20;99.90;;;;;;4937229;29;20687;-47
2020/12/22 02:18:54;;;;;;;3.47;3.17;;;9.20;99.90;;;;;;4937409;29;20212;-47
2020/12/22 02:21:22;;;;;;;3.63;3.33;;;9.20;99.90;;;;;;4937504;29;20204;-46
2020/12/22 02:23:52;;;;;;;3.33;3.03;;;9.30;99.90;;;;;;4937487;29;20220;-49
2020/12/22 02:26:19;;;;;;;4.50;3.55;;;9.30;99.90;;;;;;4937356;29;20288;-47
2020/12/22 02:28:47;;;;;;;3.60;3.30;;;9.30;99.90;;;;;;4937188;29;20704;-49
2020/12/22 02:31:16;;;;;;;3.78;3.47;;;9.30;99.90;;;;;;4937109;29;20660;-48
2020/12/22 02:33:44;;;;;;;3.45;3.15;;;9.40;99.90;;;;;;4937104;29;20302;-47
2020/12/22 02:36:12;;;;;;;3.53;3.22;;;9.40;99.90;;;;;;4937070;29;20260;-49
2020/12/22 02:38:40;;;;;;;3.37;3.07;;;9.40;99.90;;;;;;4937429;29;20378;-52
2020/12/22 02:41:08;;;;;;;4.87;3.70;;;9.40;99.90;;;;;;4935872;29;20295;-48
2020/12/22 02:43:35;;;;;;;3.78;3.47;;;9.40;99.90;;;;;;4936770;29;20218;-49
2020/12/22 02:46:03;;;;;;;3.15;2.95;;;9.50;99.90;;;;;;4936818;29;20222;-53
2020/12/22 02:48:30;;;;;;;3.92;3.63;;;9.50;99.90;;;;;;4936830;29;20671;-49
2020/12/22 02:50:57;;;;;;;4.00;3.70;;;9.50;99.90;;;;;;4936871;29;20322;-50
2020/12/22 02:53:24;;;;;;;3.67;3.38;;;9.50;99.90;;;;;;4936772;29;20208;-49
2020/12/22 02:55:52;;;;;;;2.93;2.73;;;9.40;99.90;;;;;;4936782;29;20467;-48
2020/12/22 02:58:19;;;;;;;3.40;3.15;;;9.50;99.90;;;;;;4936667;29;20212;-48
2020/12/22 03:00:46;;;;;;;4.00;3.45;;;9.50;99.90;;;;;;4936511;29;20262;-51
2020/12/22 03:03:14;;;;;;;4.05;3.50;;;9.40;99.90;;;;;;4936449;29;20219;-49
2020/12/22 03:05:41;;;;;;;4.20;3.70;;;9.50;99.90;;;;;;4936375;29;20262;-48
2020/12/22 03:08:08;;;;;;;4.23;3.47;;;9.50;99.90;;;;;;4936429;29;20291;-48
2020/12/22 03:10:36;;;;;;;4.20;3.80;;;9.50;99.90;;;;;;4936468;29;20212;-48
2020/12/22 03:13:03;;;;;;;3.92;3.53;;;9.50;99.90;;;;;;4936368;29;20810;-45
2020/12/22 03:15:30;;;;;;;4.55;4.15;;;9.50;99.90;;;;;;4936238;29;20553;-50
2020/12/22 03:17:58;;;;;;;3.22;3.03;;;9.50;99.90;;;;;;4936021;29;20290;-48
2020/12/22 03:20:24;;;;;;;4.38;4.05;;;9.50;99.90;;;;;;4936188;29;20687;-51
2020/12/22 03:22:52;;;;;;;4.63;3.70;;;9.50;99.90;;;;;;4936268;29;20243;-49
2020/12/22 03:25:19;;;;;;;3.58;3.25;;;9.50;99.90;;;;;;4936194;29;20574;-48
2020/12/22 03:27:46;;;;;;;3.78;3.45;;;9.60;99.90;;;;;;4936011;29;20295;-51
2020/12/22 03:30:16;;;;;;;3.42;3.13;;;9.60;99.90;;;;;;4936019;29;20212;-50
2020/12/22 03:32:43;;;;;;;3.60;3.30;;;9.60;99.90;;;;;;4936144;29;20298;-50
2020/12/22 03:35:11;;;;;;;4.10;3.80;;;9.60;99.90;;;;;;4935992;29;20220;-49
2020/12/22 03:37:39;;;;;;;3.70;3.40;;;9.60;99.90;;;;;;4935901;29;20251;-49
2020/12/22 03:40:09;;;;;;;4.50;3.60;;;9.60;99.90;;;;;;4935792;29;20218;-50
2020/12/22 03:42:36;;;;;;;3.95;3.65;;;9.60;99.90;;;;;;4935774;29;20303;-52
2020/12/22 03:45:04;;;;;;;4.20;3.80;;;9.60;99.90;;;;;;4935929;29;20642;-49
2020/12/22 03:47:33;;;;;;;4.55;4.15;;;9.70;99.90;;;;;;4935877;29;20212;-50
2020/12/22 03:50:18;;;;;;;4.03;3.17;;;9.60;99.90;;;;;;4935767;29;20295;-50
2020/12/22 03:52:45;;;;;;;4.32;4.03;;;9.70;99.90;;;;;;4935063;29;20267;-46
2020/12/22 03:55:12;;;;;;;3.40;3.10;;;9.70;99.90;;;;;;4935820;29;20212;-46
2020/12/22 03:57:39;;;;;;;3.75;3.45;;;9.80;99.90;;;;;;4935508;29;20302;-46
2020/12/22 04:00:06;;;;;;;5.00;3.90;;;9.80;99.90;;;;;;4935755;29;20207;-47
2020/12/22 04:02:34;;;;;;;3.50;3.20;;;9.80;99.90;;;;;;4935329;29;20212;-46
2020/12/22 04:05:01;;;;;;;3.47;3.17;;;9.90;99.90;;;;;;4935412;29;20294;-46
2020/12/22 04:07:30;;;;;;;4.70;3.30;;;9.90;99.90;;;;;;4935384;29;20212;-47
2020/12/22 04:09:57;;;;;;;3.80;2.80;;;9.90;99.90;;;;;;4935530;29;20279;-52
2020/12/22 04:12:24;;;;;;;3.88;3.22;;;9.90;99.90;;;;;;4935001;29;20238;-51
2020/12/22 04:14:51;;;;;;;2.92;2.50;;;10.00;99.90;;;;;;4934568;29;20244;-53
2020/12/22 04:17:18;;;;;;;3.17;2.90;;;9.90;99.90;;;;;;4934511;29;20307;-52
2020/12/22 04:19:46;;;;;;;2.97;2.78;;;10.00;99.90;;;;;;4934400;29;20211;-51
2020/12/22 04:22:13;;;;;;;3.20;3.00;;;10.00;99.90;;;;;;4934644;29;20212;-49
2020/12/22 04:24:40;;;;;;;2.83;2.55;;;10.00;99.90;;;;;;4934406;29;20310;-53
2020/12/22 04:27:07;;;;;;;3.20;2.90;;;10.00;99.90;;;;;;4934230;29;20207;-53
2020/12/22 04:29:34;;;;;;;2.78;2.50;;;10.10;99.90;;;;;;4934085;29;20212;-49
2020/12/22 04:32:01;;;;;;;2.78;2.47;;;10.10;99.90;;;;;;4934022;29;20236;-47
2020/12/22 04:34:28;;;;;;;2.60;2.38;;;10.20;99.90;;;;;;4934443;29;20219;-50
2020/12/22 04:36:56;;;;;;;2.55;2.28;;;10.20;99.90;;;;;;4934480;29;20817;-50
2020/12/22 04:39:23;;;;;;;2.90;2.33;;;10.20;99.90;;;;;;4934311;29;20251;-52
2020/12/22 04:41:50;;;;;;;2.47;2.27;;;10.20;99.90;;;;;;4934405;29;20405;-47
2020/12/22 04:44:17;;;;;;;2.38;2.17;;;10.30;99.90;;;;;;4933983;29;20220;-45
2020/12/22 04:46:50;;;;;;;2.53;2.33;;;10.30;99.90;;;;;;4933885;29;20240;-47
2020/12/22 04:49:21;;;;;;;2.10;1.90;;;10.30;99.90;;;;;;4933867;29;20208;-52
2020/12/22 04:51:50;;;;;;;2.93;2.03;;;10.30;99.90;;;;;;4933853;29;20292;-49
2020/12/22 04:54:33;;;;;;;2.88;2.50;;;10.30;99.90;;;;;;4933785;29;20227;-52
2020/12/22 04:57:03;;;;;;;2.25;2.05;;;10.40;99.90;;;;;;4933940;29;20222;-52
2020/12/22 04:59:30;;;;;;;2.50;2.30;;;10.40;99.90;;;;;;4934039;29;20726;-48
2020/12/22 05:01:58;;;;;;;2.10;1.90;;;10.40;99.90;;;;;;4933891;29;20238;-48
2020/12/22 05:04:33;;;;;;;2.20;2.00;;;10.40;99.90;;;;;;4936209;29;20235;-46
2020/12/22 05:07:00;;;;;;;2.17;2.00;;;10.50;99.90;;;;;;4937427;29;20306;-44
2020/12/22 05:09:27;;;;;;;3.40;1.92;;;10.50;99.90;;;;;;4937392;29;20347;-46
2020/12/22 05:11:55;;;;;;;2.22;2.00;;;10.50;99.90;;;;;;4936963;29;20318;-47
2020/12/22 05:14:24;;;;;;;1.75;1.63;;;10.50;99.90;;;;;;4917795;29;588205;-45
2020/12/22 05:16:51;;;;;;;1.40;1.30;;;10.50;99.90;;;;;;4938583;29;20235;-50
2020/12/22 05:19:19;;;;;;;34.45;30.77;;;10.50;99.90;;;;;;4938321;29;20239;-50
2020/12/22 05:21:47;;;;;;;1.80;1.67;;;10.50;99.90;;;;;;4938122;29;20614;-51
2020/12/22 05:24:15;;;;;;;3.22;2.30;;;10.60;99.90;;;;;;4937972;29;20216;-52
2020/12/22 05:26:44;;;;;;;2.20;2.00;;;10.60;99.90;;;;;;4938297;29;20223;-49
2020/12/22 05:29:14;;;;;;;2.58;1.88;;;10.60;99.90;;;;;;4938077;29;20299;-45
2020/12/22 05:31:42;;;;;;;2.47;1.80;;;10.60;99.90;;;;;;4937983;29;20320;-45
2020/12/22 05:34:11;;;;;;;2.58;2.38;;;10.60;99.90;;;;;;4937849;29;20272;-50
2020/12/22 05:36:39;;;;;;;2.60;2.30;;;10.60;99.90;;;;;;4938196;29;20307;-49
2020/12/22 05:39:08;;;;;;;2.10;1.90;;;10.50;99.90;;;;;;4937759;29;20219;-50
2020/12/22 05:41:36;;;;;;;3.93;1.83;;;10.50;99.90;;;;;;4937256;29;20239;-49
2020/12/22 05:44:04;;;;;;;1.67;1.58;;;10.50;99.90;;;;;;4937862;29;20262;-49
2020/12/22 05:46:35;;;;;;;2.50;2.28;;;10.50;99.90;;;;;;4937492;29;20278;-46
2020/12/22 05:49:03;;;;;;;1.75;1.65;;;10.40;99.90;;;;;;4937729;29;20292;-45
2020/12/22 05:51:38;;;;;;;2.33;1.50;;;10.40;99.90;;;;;;4937559;29;20618;-49
2020/12/22 05:54:07;;;;;;;1.63;1.52;;;10.50;99.90;;;;;;4937287;29;20216;-49
2020/12/22 05:56:35;;;;;;;1.70;1.60;;;10.40;99.90;;;;;;4937441;29;20315;-47
2020/12/22 05:59:02;;;;;;;3.87;1.50;;;10.40;99.90;;;;;;4937325;29;20244;-50
2020/12/22 06:01:33;;;;;;;1.50;1.30;;;10.40;99.90;;;;;;4937398;29;20295;-54
2020/12/22 06:04:02;;;;;;;1.57;1.40;;;10.40;99.90;;;;;;4937298;29;20216;-47
2020/12/22 06:06:32;;;;;;;1.40;1.30;;;10.40;99.90;;;;;;4937275;29;20252;-46
2020/12/22 06:08:59;;;;;;;2.47;1.33;;;10.40;99.90;;;;;;4936757;29;20263;-46
2020/12/22 06:11:28;;;;;;;1.40;1.30;;;10.40;99.90;;;;;;4937412;29;20316;-44
2020/12/22 06:13:57;;;;;;;1.60;1.50;;;10.40;99.90;;;;;;4936756;29;20324;-48
2020/12/22 06:16:24;;;;;;;1.60;1.50;;;10.40;99.90;;;;;;4936900;29;20266;-44
2020/12/22 06:18:52;;;;;;;1.92;1.20;;;10.40;99.90;;;;;;4937188;29;20364;-48
2020/12/22 06:21:21;;;;;;;2.78;1.70;;;10.40;99.90;;;;;;4937172;29;20640;-46
2020/12/22 06:23:49;;;;;;;1.80;1.67;;;10.40;99.90;;;;;;4937140;29;20218;-48
2020/12/22 06:26:17;;;;;;;2.53;1.60;;;10.40;99.90;;;;;;4936996;29;20639;-46
2020/12/22 06:28:45;;;;;;;2.33;1.87;;;10.40;99.90;;;;;;4937175;29;20240;-46
2020/12/22 06:31:19;;;;;;;1.60;1.50;;;10.40;99.90;;;;;;4936929;29;20220;-45
2020/12/22 06:33:46;;;;;;;1.35;1.20;;;10.50;99.90;;;;;;4937219;29;20218;-49
2020/12/22 06:36:17;;;;;;;1.75;1.50;;;10.50;99.90;;;;;;4937006;29;20208;-45
2020/12/22 06:38:56;;;;;;;1.40;1.30;;;10.50;99.90;;;;;;4936983;29;20208;-44
2020/12/22 06:41:46;;;;;;;1.33;1.17;;;10.50;99.90;;;;;;4936790;29;20235;-44
2020/12/22 06:44:25;;;;;;;2.37;2.17;;;10.50;99.90;;;;;;4936915;29;20216;-45
2020/12/22 06:46:53;;;;;;;2.03;1.90;;;10.50;99.90;;;;;;4936599;29;20683;-46
2020/12/22 06:49:47;;;;;;;4.43;4.10;;;10.50;99.90;;;;;;4936725;29;20240;-49
2020/12/22 06:52:30;;;;;;;1.93;1.83;;;10.50;99.90;;;;;;4936465;29;20718;-50
2020/12/22 06:54:58;;;;;;;1.77;1.60;;;10.50;99.90;;;;;;4936840;29;20212;-45
2020/12/22 06:57:48;;;;;;;1.70;1.60;;;10.50;99.90;;;;;;4936366;29;20295;-44
2020/12/22 07:00:24;;;;;;;1.43;1.33;;;10.50;99.90;;;;;;4936639;29;20299;-44
2020/12/22 07:03:13;;;;;;;1.50;1.40;;;10.60;99.90;;;;;;4936523;29;20208;-48
2020/12/22 07:05:41;;;;;;;2.30;1.25;;;10.60;99.90;;;;;;4936001;29;20303;-46
2020/12/22 07:08:10;;;;;;;1.40;1.20;;;10.60;99.90;;;;;;4936187;29;20620;-49
2020/12/22 07:10:39;;;;;;;2.13;1.75;;;10.70;99.90;;;;;;4936004;29;20212;-51
2020/12/22 07:13:09;;;;;;;1.08;0.98;;;10.70;99.90;;;;;;4936159;29;20294;-51
2020/12/22 07:15:37;;;;;;;1.88;1.77;;;10.70;99.90;;;;;;4936198;29;20671;-47
2020/12/22 07:18:10;;;;;;;1.70;1.58;;;10.70;99.90;;;;;;4936498;29;20299;-47
2020/12/22 07:20:40;;;;;;;3.35;1.65;;;10.70;99.90;;;;;;4935887;29;20295;-40
2020/12/22 07:23:09;;;;;;;1.67;1.58;;;10.80;99.90;;;;;;4935951;29;20240;-51
2020/12/22 07:25:37;;;;;;;1.70;1.50;;;10.80;99.90;;;;;;4935460;29;20293;-51
2020/12/22 07:28:05;;;;;;;3.78;3.35;;;10.80;99.90;;;;;;4935616;29;20647;-53
2020/12/22 07:30:32;;;;;;;1.52;1.23;;;10.80;99.90;;;;;;4935682;29;20212;-51
2020/12/22 07:33:01;;;;;;;1.58;1.48;;;10.90;99.90;;;;;;4935760;29;20307;-52
2020/12/22 07:35:29;;;;;;;1.48;1.38;;;10.90;99.90;;;;;;4935822;29;20222;-50
2020/12/22 07:38:02;;;;;;;1.52;1.42;;;11.00;99.90;;;;;;4935927;29;20247;-51
2020/12/22 07:40:29;;;;;;;2.60;1.40;;;11.00;99.90;;;;;;4935544;29;20275;-52
2020/12/22 07:43:08;;;;;;;1.60;1.50;;;11.00;99.90;;;;;;4935674;29;20291;-45
2020/12/22 07:45:35;;;;;;;1.30;1.20;;;11.00;99.90;;;;;;4935509;29;20310;-44
2020/12/22 07:48:06;;;;;;;1.75;1.30;;;11.10;99.90;;;;;;4935569;29;20239;-45
2020/12/22 07:50:33;;;;;;;2.10;1.40;;;11.10;99.90;;;;;;4935637;29;20271;-49
2020/12/22 07:53:00;;;;;;;1.52;1.38;;;11.20;99.90;;;;;;4935406;29;20257;-47
2020/12/22 07:55:37;;;;;;;1.17;1.05;;;11.20;99.90;;;;;;4935405;29;20208;-48
2020/12/22 07:58:05;;;;;;;1.85;1.75;;;11.30;99.90;;;;;;4935335;29;20643;-46
2020/12/22 08:00:32;;;;;;;2.08;1.40;;;11.30;99.90;;;;;;4934979;29;20308;-48
2020/12/22 08:03:12;;;;;;;2.30;1.27;;;11.30;99.90;;;;;;4935320;29;20628;-47
2020/12/22 08:05:39;;;;;;;1.35;1.23;;;11.30;99.90;;;;;;4935201;29;20303;-47
2020/12/22 08:08:06;;;;;;;1.10;1.00;;;11.30;99.90;;;;;;4934866;29;20223;-45
2020/12/22 08:10:36;;;;;;;1.42;1.33;;;11.40;99.90;;;;;;4935068;29;20303;-46
2020/12/22 08:13:06;;;;;;;1.52;1.40;;;11.40;99.90;;;;;;4934669;29;20268;-46
2020/12/22 08:15:34;;;;;;;1.70;1.58;;;11.40;99.90;;;;;;4935057;29;20252;-46
2020/12/22 08:18:04;;;;;;;1.98;1.20;;;11.50;99.90;;;;;;4935295;29;20219;-44
2020/12/22 08:20:33;;;;;;;1.50;1.40;;;11.50;99.90;;;;;;4935133;29;20307;-44
2020/12/22 08:23:14;;;;;;;1.92;1.20;;;11.60;99.90;;;;;;4934929;29;20222;-45
2020/12/22 08:25:44;;;;;;;0.88;0.88;;;11.70;99.90;;;;;;4934908;29;20750;-45
2020/12/22 08:28:21;;;;;;;1.33;1.23;;;11.70;99.90;;;;;;4935097;29;20219;-48
2020/12/22 08:30:48;;;;;;;1.95;1.20;;;11.70;99.90;;;;;;4935029;29;20235;-45
2020/12/22 08:33:18;;;;;;;1.13;1.02;;;11.70;99.90;;;;;;4935010;29;20318;-45
2020/12/22 08:35:48;;;;;;;2.63;1.20;;;11.70;99.90;;;;;;4935030;29;20334;-51
2020/12/22 08:38:23;;;;;;;1.10;1.00;;;11.80;99.90;;;;;;4934885;29;20299;-47
2020/12/22 08:40:51;;;;;;;1.38;1.10;;;11.80;99.90;;;;;;4934979;29;20251;-49
2020/12/22 08:43:23;;;;;;;1.75;1.52;;;11.90;99.90;;;;;;4934709;29;20682;-49
2020/12/22 08:45:51;;;;;;;2.00;1.80;;;11.90;99.90;;;;;;4934998;29;20216;-46
2020/12/22 08:48:18;;;;;;;2.08;1.17;;;11.90;99.90;;;;;;4934715;29;20208;-51
2020/12/22 08:50:49;;;;;;;1.42;1.13;;;12.00;99.90;;;;;;4934507;29;20259;-47
2020/12/22 08:53:33;;;;;;;1.60;1.50;;;12.00;99.90;;;;;;4934695;29;20242;-45
2020/12/22 08:56:11;;;;;;;1.25;1.05;;;12.00;99.90;;;;;;4934674;29;20235;-46
2020/12/22 08:58:52;;;;;;;0.77;0.77;;;12.00;99.90;;;;;;4934745;29;20649;-48
2020/12/22 09:01:21;;;;;;;1.08;0.90;;;12.00;99.90;;;;;;4934487;29;20243;-49
2020/12/22 09:03:50;;;;;;;1.98;1.35;;;12.00;99.90;;;;;;4934475;29;20575;-49
2020/12/22 09:06:17;;;;;;;2.40;0.80;;;12.00;99.90;;;;;;4934364;29;20731;-46
2020/12/22 09:08:46;;;;;;;3.90;1.40;;;12.00;99.90;;;;;;4934641;29;20226;-48
2020/12/22 09:11:20;;;;;;;1.75;0.80;;;12.00;99.90;;;;;;4934504;29;20212;-47
2020/12/22 09:13:58;;;;;;;1.33;0.90;;;12.00;99.90;;;;;;4934398;29;20246;-46
2020/12/22 09:16:25;;;;;;;2.63;1.17;;;12.00;99.90;;;;;;4934737;29;20239;-51
2020/12/22 09:19:04;;;;;;;2.53;1.15;;;12.10;99.90;;;;;;4934370;29;20302;-50
2020/12/22 09:21:31;;;;;;;1.15;1.00;;;12.10;99.90;;;;;;4934565;29;20251;-49
2020/12/22 09:23:58;;;;;;;1.10;1.00;;;12.20;99.90;;;;;;4934662;29;20251;-48
2020/12/22 09:26:25;;;;;;;1.00;0.90;;;12.20;99.90;;;;;;4934425;29;20247;-48
2020/12/22 09:28:52;;;;;;;1.48;1.13;;;12.20;99.90;;;;;;4934346;29;20216;-44
2020/12/22 09:31:24;;;;;;;1.60;1.50;;;12.20;99.90;;;;;;4934499;29;20215;-46
2020/12/22 09:33:51;;;;;;;1.98;1.00;;;12.30;99.90;;;;;;4934124;29;20236;-44
2020/12/22 09:36:18;;;;;;;1.33;1.15;;;12.30;99.90;;;;;;4934212;29;20307;-45
2020/12/22 09:38:45;;;;;;;0.90;0.88;;;12.40;99.90;;;;;;4934084;29;20580;-45
2020/12/22 09:41:13;;;;;;;0.65;0.65;;;12.40;99.90;;;;;;4934379;29;20236;-49
2020/12/22 09:43:40;;;;;;;1.20;1.08;;;12.40;99.90;;;;;;4934223;29;20291;-45
2020/12/22 09:46:22;;;;;;;1.50;0.90;;;12.50;99.90;;;;;;4934350;29;20361;-46
2020/12/22 09:48:50;;;;;;;1.65;1.10;;;12.50;99.90;;;;;;4934059;29;20242;-47
2020/12/22 09:51:17;;;;;;;1.10;1.00;;;12.40;99.90;;;;;;4937952;29;20616;-46
2020/12/22 09:53:44;;;;;;;1.60;1.00;;;12.40;99.90;;;;;;4937350;29;20711;-46
2020/12/22 09:56:10;;;;;;;0.88;0.88;;;12.40;99.90;;;;;;4937584;29;20677;-50
2020/12/22 09:58:37;;;;;;;1.55;1.17;;;12.40;99.90;;;;;;4937536;29;20212;-50
2020/12/22 10:01:05;;;;;;;0.98;0.88;;;12.40;99.90;;;;;;4937628;29;20679;-47
2020/12/22 10:03:33;;;;;;;2.20;0.73;;;12.40;99.90;;;;;;4937314;29;20204;-46
2020/12/22 10:06:01;;;;;;;5.53;2.10;;;12.40;99.90;;;;;;4937541;29;20216;-45
2020/12/22 10:08:28;;;;;;;0.73;0.73;;;12.50;99.90;;;;;;4937244;29;20216;-46
2020/12/22 10:10:54;;;;;;;0.95;0.80;;;12.50;99.90;;;;;;4937514;29;20306;-46
2020/12/22 10:13:21;;;;;;;1.23;0.85;;;12.50;99.90;;;;;;4937162;29;20346;-47
2020/12/22 10:15:49;;;;;;;2.33;0.80;;;12.50;99.90;;;;;;4937525;29;20648;-45
2020/12/22 10:18:16;;;;;;;1.83;1.00;;;12.60;99.90;;;;;;4937400;29;20216;-50
2020/12/22 10:20:42;;;;;;;1.10;1.00;;;12.60;99.90;;;;;;4937494;29;20577;-50
2020/12/22 10:23:11;;;;;;;0.75;0.75;;;12.60;99.90;;;;;;4937418;29;20218;-50
2020/12/22 10:25:38;;;;;;;0.90;0.73;;;12.70;99.90;;;;;;4937164;29;20248;-47
2020/12/22 10:28:05;;;;;;;0.88;0.85;;;12.70;99.90;;;;;;4937050;29;20746;-48
2020/12/22 10:30:32;;;;;;;1.20;1.08;;;12.70;99.90;;;;;;4937040;29;20218;-47
2020/12/22 10:32:59;;;;;;;0.82;0.80;;;12.70;99.90;;;;;;4937313;29;20274;-49
2020/12/22 10:35:26;;;;;;;1.10;1.00;;;12.70;99.90;;;;;;4937215;29;20218;-47
2020/12/22 10:37:53;;;;;;;1.05;0.95;;;12.80;99.90;;;;;;4937049;29;20218;-49
2020/12/22 10:40:21;;;;;;;1.20;0.88;;;12.80;99.90;;;;;;4937108;29;20216;-46
2020/12/22 10:42:48;;;;;;;1.35;0.73;;;12.80;99.90;;;;;;4936923;29;20236;-49
2020/12/22 10:45:15;;;;;;;0.60;0.50;;;12.80;99.90;;;;;;4936670;29;20346;-47
2020/12/22 10:47:42;;;;;;;1.60;1.02;;;12.80;99.90;;;;;;4937172;29;20212;-48
2020/12/22 10:50:09;;;;;;;0.77;0.70;;;12.80;99.90;;;;;;4936895;29;20228;-48
2020/12/22 10:52:36;;;;;;;1.17;0.80;;;12.80;99.90;;;;;;4936477;29;20767;-48
2020/12/22 10:55:03;;;;;;;0.70;0.70;;;12.80;99.90;;;;;;4936740;29;20216;-45
2020/12/22 10:57:31;;;;;;;0.70;0.70;;;12.90;99.90;;;;;;4936419;29;20220;-48
2020/12/22 10:59:58;;;;;;;0.90;0.80;;;12.90;99.90;;;;;;4936228;29;20305;-47
2020/12/22 11:02:25;;;;;;;4.80;3.17;;;12.80;99.90;;;;;;4935468;29;20719;-48
2020/12/22 11:04:54;;;;;;;1.90;1.58;;;12.80;99.90;;;;;;4936366;29;20298;-48
2020/12/22 11:07:23;;;;;;;1.88;1.02;;;12.80;99.90;;;;;;4936107;29;20247;-48
2020/12/22 11:09:51;;;;;;;1.35;0.80;;;12.80;99.90;;;;;;4936264;29;20222;-49
2020/12/22 11:12:18;;;;;;;1.40;1.15;;;12.70;99.90;;;;;;4935995;29;20616;-46
2020/12/22 11:14:46;;;;;;;0.85;0.68;;;12.70;99.90;;;;;;4936262;29;20216;-47
2020/12/22 11:17:14;;;;;;;1.17;0.85;;;12.60;99.90;;;;;;4936457;29;20754;-47
2020/12/22 11:19:41;;;;;;;2.65;1.60;;;12.60;99.90;;;;;;4936234;29;20208;-48
2020/12/22 11:22:09;;;;;;;1.83;1.50;;;12.60;99.90;;;;;;4936155;29;20219;-48
2020/12/22 11:24:36;;;;;;;1.73;1.20;;;12.60;99.90;;;;;;4936098;29;20216;-48
2020/12/22 11:27:03;;;;;;;1.75;1.00;;;12.70;99.90;;;;;;4935655;29;20299;-47
2020/12/22 11:29:29;;;;;;;1.27;0.80;;;12.80;99.90;;;;;;4936159;29;20299;-46
2020/12/22 11:31:58;;;;;;;1.27;0.98;;;12.90;99.90;;;;;;4936128;29;20295;-43
2020/12/22 11:34:25;;;;;;;1.25;0.80;;;12.90;99.90;;;;;;4935933;29;20633;-46
2020/12/22 11:36:53;;;;;;;0.65;0.65;;;13.00;99.90;;;;;;4935841;29;20683;-43
2020/12/22 11:39:21;;;;;;;1.98;0.73;;;13.00;99.90;;;;;;4935820;29;20308;-44
2020/12/22 11:41:48;;;;;;;1.40;1.00;;;13.00;99.90;;;;;;4935962;29;20299;-47
2020/12/22 11:44:15;;;;;;;0.80;0.80;;;13.00;99.90;;;;;;4935734;29;20216;-49
2020/12/22 11:46:44;;;;;;;3.22;1.67;;;13.10;99.90;;;;;;4935446;29;20303;-46
2020/12/22 11:49:13;;;;;;;2.20;0.80;;;13.10;99.90;;;;;;4935418;29;20216;-46
2020/12/22 11:51:40;;;;;;;1.00;0.60;;;13.10;99.90;;;;;;4935510;29;20295;-48
2020/12/22 11:54:07;;;;;;;1.67;0.90;;;13.10;99.90;;;;;;4935338;29;20326;-44
2020/12/22 11:56:33;;;;;;;1.63;0.82;;;13.10;99.90;;;;;;4935320;29;20651;-44
2020/12/22 11:59:00;;;;;;;1.50;0.70;;;13.20;99.90;;;;;;4935651;29;20212;-48
2020/12/22 12:01:28;;;;;;;1.33;1.23;;;13.20;99.90;;;;;;4935440;29;20224;-45
2020/12/22 12:03:55;;;;;;;1.17;0.90;;;13.20;99.90;;;;;;4935101;29;20299;-46
2020/12/22 12:06:23;;;;;;;1.10;1.00;;;13.10;99.90;;;;;;4935044;29;20251;-46
2020/12/22 12:08:50;;;;;;;2.22;0.85;;;13.20;99.90;;;;;;4935459;29;20312;-49
2020/12/22 12:11:17;;;;;;;1.10;1.00;;;13.10;99.90;;;;;;4935366;29;20306;-48
2020/12/22 12:13:44;;;;;;;0.73;0.60;;;13.20;99.90;;;;;;4934985;29;20338;-46
2020/12/22 12:16:11;;;;;;;3.60;2.60;;;13.20;99.90;;;;;;4935352;29;20208;-44
2020/12/22 12:18:39;;;;;;;1.08;0.82;;;13.20;99.90;;;;;;4934904;29;20637;-46
2020/12/22 12:21:07;;;;;;;1.98;1.20;;;13.30;99.90;;;;;;4935057;29;20216;-46
2020/12/22 12:23:35;;;;;;;1.35;0.90;;;13.30;99.90;;;;;;4935037;29;20263;-48
2020/12/22 12:26:05;;;;;;;1.40;0.90;;;13.30;99.90;;;;;;4935105;29;20254;-45
2020/12/22 12:28:32;;;;;;;1.38;1.00;;;13.30;99.90;;;;;;4935031;29;20679;-46
2020/12/22 12:30:59;;;;;;;1.05;0.95;;;13.40;99.90;;;;;;4934918;29;20211;-45
2020/12/22 12:33:26;;;;;;;1.02;0.90;;;13.40;99.90;;;;;;4934820;29;20326;-45
2020/12/22 12:35:53;;;;;;;1.58;1.40;;;13.40;99.90;;;;;;4934726;29;20311;-44
2020/12/22 12:38:20;;;;;;;1.75;1.42;;;13.50;99.90;;;;;;4934585;29;20220;-46
2020/12/22 12:40:48;;;;;;;1.60;1.38;;;13.50;99.90;;;;;;4934655;29;20660;-44
2020/12/22 12:43:15;;;;;;;1.10;0.70;;;13.60;99.90;;;;;;4934855;29;20295;-48
2020/12/22 12:45:42;;;;;;;2.15;0.93;;;13.70;99.90;;;;;;4934646;29;20307;-45
2020/12/22 12:48:09;;;;;;;0.82;0.82;;;13.70;99.90;;;;;;4934635;29;20212;-47
2020/12/22 12:50:36;;;;;;;1.10;1.00;;;13.80;99.90;;;;;;4934775;29;20311;-46
2020/12/22 12:53:03;;;;;;;0.88;0.80;;;13.80;99.90;;;;;;4934665;29;20257;-44
2020/12/22 12:55:31;;;;;;;0.85;0.70;;;13.80;99.90;;;;;;4934584;29;20215;-46
2020/12/22 12:57:59;;;;;;;1.60;1.35;;;13.80;99.90;;;;;;4934663;29;20212;-44